sensor_id;sensor_type;location;lat;lon;timestamp;pressure;altitude;pressure_sealevel;temperature;humidity
68197;BME280;55019;49.382;11.358;2023-07-24T00:02:06;96041.53;;;17.97;81.19
68197;BME280;55019;49.382;11.358;2023-07-24T00:04:32;96054.50;;;18.04;82.18
68197;BME280;55019;49.382;11.358;2023-07-24T00:06:59;96055.88;;;18.06;79.71
68197;BME280;55019;49.382;11.358;2023-07-24T00:09:24;96071.47;;;17.65;80.49
68197;BME280;55019;49.382;11.358;2023-07-24T00:11:50;96091.81;;;17.63;85.70
68197;BME280;55019;49.382;11.358;2023-07-24T00:14:16;96133.16;;;17.66;86.98
68197;BME280;55019;49.382;11.358;2023-07-24T00:16:42;96158.28;;;17.85;89.08
68197;BME280;55019;49.382;11.358;2023-07-24T00:19:07;96171.78;;;18.00;86.09
68197;BME280;55019;49.382;11.358;2023-07-24T00:21:33;96177.00;;;18.00;86.10
68197;BME280;55019;49.382;11.358;2023-07-24T00:23:59;96183.69;;;18.14;87.30
68197;BME280;55019;49.382;11.358;2023-07-24T00:26:24;96199.97;;;18.16;80.85
68197;BME280;55019;49.382;11.358;2023-07-24T00:28:50;96197.34;;;18.16;86.71
68197;BME280;55019;49.382;11.358;2023-07-24T00:31:16;96202.47;;;18.29;87.26
68197;BME280;55019;49.382;11.358;2023-07-24T00:33:43;96208.75;;;18.22;84.17
68197;BME280;55019;49.382;11.358;2023-07-24T00:36:10;96217.03;;;18.01;87.88
68197;BME280;55019;49.382;11.358;2023-07-24T00:38:36;96238.13;;;17.81;89.97
68197;BME280;55019;49.382;11.358;2023-07-24T00:41:02;96250.19;;;17.58;89.78
68197;BME280;55019;49.382;11.358;2023-07-24T00:43:27;96252.56;;;17.59;93.07
68197;BME280;55019;49.382;11.358;2023-07-24T00:45:55;96243.81;;;17.54;96.86
68197;BME280;55019;49.382;11.358;2023-07-24T00:48:21;96215.28;;;17.52;98.65
68197;BME280;55019;49.382;11.358;2023-07-24T00:50:47;96192.00;;;17.51;100.00
68197;BME280;55019;49.382;11.358;2023-07-24T00:53:13;96205.25;;;17.49;96.90
68197;BME280;55019;49.382;11.358;2023-07-24T00:55:41;96197.34;;;17.38;97.71
68197;BME280;55019;49.382;11.358;2023-07-24T00:58:10;96204.22;;;17.26;98.76
68197;BME280;55019;49.382;11.358;2023-07-24T01:00:38;96184.91;;;17.27;100.00
68197;BME280;55019;49.382;11.358;2023-07-24T01:03:03;96178.78;;;17.15;100.00
68197;BME280;55019;49.382;11.358;2023-07-24T01:05:32;96162.81;;;17.30;100.00
68197;BME280;55019;49.382;11.358;2023-07-24T01:07:58;96172.63;;;17.10;100.00
68197;BME280;55019;49.382;11.358;2023-07-24T01:10:23;96167.06;;;17.00;100.00
68197;BME280;55019;49.382;11.358;2023-07-24T01:13:05;96163.44;;;17.01;100.00
68197;BME280;55019;49.382;11.358;2023-07-24T01:15:55;96152.81;;;17.02;100.00
68197;BME280;55019;49.382;11.358;2023-07-24T01:18:24;96126.44;;;17.10;100.00
68197;BME280;55019;49.382;11.358;2023-07-24T01:20:51;96110.19;;;17.33;100.00
68197;BME280;55019;49.382;11.358;2023-07-24T01:26:09;96169.41;;;17.08;100.00
68197;BME280;55019;49.382;11.358;2023-07-24T01:28:35;96143.84;;;16.92;100.00
68197;BME280;55019;49.382;11.358;2023-07-24T01:31:00;96091.50;;;16.87;100.00
68197;BME280;55019;49.382;11.358;2023-07-24T01:33:26;96054.19;;;16.86;100.00
68197;BME280;55019;49.382;11.358;2023-07-24T01:35:57;96096.66;;;16.69;100.00
68197;BME280;55019;49.382;11.358;2023-07-24T01:38:25;96120.94;;;16.94;100.00
68197;BME280;55019;49.382;11.358;2023-07-24T01:40:54;96127.81;;;16.88;100.00
68197;BME280;55019;49.382;11.358;2023-07-24T01:43:21;96119.03;;;16.52;100.00
68197;BME280;55019;49.382;11.358;2023-07-24T01:45:47;96110.78;;;16.55;100.00
68197;BME280;55019;49.382;11.358;2023-07-24T01:48:13;96097.56;;;16.50;100.00
68197;BME280;55019;49.382;11.358;2023-07-24T01:50:38;96085.50;;;16.55;100.00
68197;BME280;55019;49.382;11.358;2023-07-24T01:53:04;96025.06;;;16.65;100.00
68197;BME280;55019;49.382;11.358;2023-07-24T01:55:30;96009.25;;;16.60;100.00
68197;BME280;55019;49.382;11.358;2023-07-24T01:57:55;95975.84;;;16.68;100.00
68197;BME280;55019;49.382;11.358;2023-07-24T02:00:21;95993.91;;;16.70;100.00
68197;BME280;55019;49.382;11.358;2023-07-24T02:02:56;96034.03;;;16.44;100.00
68197;BME280;55019;49.382;11.358;2023-07-24T02:05:22;96028.50;;;16.28;100.00
68197;BME280;55019;49.382;11.358;2023-07-24T02:07:48;96008.81;;;16.01;100.00
68197;BME280;55019;49.382;11.358;2023-07-24T02:10:13;95979.50;;;16.12;100.00
68197;BME280;55019;49.382;11.358;2023-07-24T02:12:39;95991.66;;;15.93;100.00
68197;BME280;55019;49.382;11.358;2023-07-24T02:15:06;95967.09;;;16.07;100.00
68197;BME280;55019;49.382;11.358;2023-07-24T02:17:32;95974.66;;;16.15;100.00
68197;BME280;55019;49.382;11.358;2023-07-24T02:19:57;95973.34;;;16.31;100.00
68197;BME280;55019;49.382;11.358;2023-07-24T02:22:24;95971.50;;;16.31;100.00
68197;BME280;55019;49.382;11.358;2023-07-24T02:24:49;95958.00;;;16.47;100.00
68197;BME280;55019;49.382;11.358;2023-07-24T02:27:30;95966.09;;;16.64;100.00
68197;BME280;55019;49.382;11.358;2023-07-24T02:29:57;95961.38;;;16.72;100.00
68197;BME280;55019;49.382;11.358;2023-07-24T02:32:26;95951.75;;;16.73;100.00
68197;BME280;55019;49.382;11.358;2023-07-24T02:34:52;95956.75;;;16.50;100.00
68197;BME280;55019;49.382;11.358;2023-07-24T02:37:18;95952.47;;;16.62;100.00
68197;BME280;55019;49.382;11.358;2023-07-24T02:39:44;95960.03;;;16.45;100.00
68197;BME280;55019;49.382;11.358;2023-07-24T02:42:10;95962.84;;;16.44;100.00
68197;BME280;55019;49.382;11.358;2023-07-24T02:44:36;95951.94;;;16.53;100.00
68197;BME280;55019;49.382;11.358;2023-07-24T02:47:02;95956.56;;;16.51;100.00
68197;BME280;55019;49.382;11.358;2023-07-24T02:49:28;95959.06;;;16.40;100.00
68197;BME280;55019;49.382;11.358;2023-07-24T02:51:54;95960.38;;;16.49;100.00
68197;BME280;55019;49.382;11.358;2023-07-24T02:54:20;95952.13;;;16.52;100.00
68197;BME280;55019;49.382;11.358;2023-07-24T02:56:46;95962.63;;;16.70;100.00
68197;BME280;55019;49.382;11.358;2023-07-24T02:59:11;95955.91;;;16.56;100.00
68197;BME280;55019;49.382;11.358;2023-07-24T03:01:37;95953.56;;;16.48;100.00
68197;BME280;55019;49.382;11.358;2023-07-24T03:04:03;95958.56;;;16.25;100.00
68197;BME280;55019;49.382;11.358;2023-07-24T03:06:31;95950.53;;;16.51;100.00
68197;BME280;55019;49.382;11.358;2023-07-24T03:08:57;95952.72;;;16.54;100.00
68197;BME280;55019;49.382;11.358;2023-07-24T03:11:23;95957.19;;;16.47;100.00
68197;BME280;55019;49.382;11.358;2023-07-24T03:13:56;95957.41;;;16.45;100.00
68197;BME280;55019;49.382;11.358;2023-07-24T03:16:22;95953.56;;;16.48;100.00
68197;BME280;55019;49.382;11.358;2023-07-24T03:18:48;95959.63;;;16.66;100.00
68197;BME280;55019;49.382;11.358;2023-07-24T03:21:13;95956.69;;;16.38;100.00
68197;BME280;55019;49.382;11.358;2023-07-24T03:23:39;95960.03;;;16.45;100.00
68197;BME280;55019;49.382;11.358;2023-07-24T03:26:05;95968.78;;;16.51;100.00
68197;BME280;55019;49.382;11.358;2023-07-24T03:28:30;95953.03;;;16.64;100.00
68197;BME280;55019;49.382;11.358;2023-07-24T03:30:56;95946.66;;;16.60;100.00
68197;BME280;55019;49.382;11.358;2023-07-24T03:33:22;95946.72;;;16.71;100.00
68197;BME280;55019;49.382;11.358;2023-07-24T03:35:50;95951.44;;;16.63;100.00
68197;BME280;55019;49.382;11.358;2023-07-24T03:38:16;95947.44;;;16.60;100.00
68197;BME280;55019;49.382;11.358;2023-07-24T03:40:42;95948.56;;;16.71;100.00
68197;BME280;55019;49.382;11.358;2023-07-24T03:43:07;95944.84;;;16.36;100.00
68197;BME280;55019;49.382;11.358;2023-07-24T03:45:33;95938.03;;;16.35;100.00
68197;BME280;55019;49.382;11.358;2023-07-24T03:47:59;95943.66;;;16.32;100.00
68197;BME280;55019;49.382;11.358;2023-07-24T03:50:24;95944.66;;;16.31;100.00
68197;BME280;55019;49.382;11.358;2023-07-24T03:52:50;95933.13;;;16.45;100.00
68197;BME280;55019;49.382;11.358;2023-07-24T03:55:16;95908.97;;;16.56;100.00
68197;BME280;55019;49.382;11.358;2023-07-24T03:57:42;95909.13;;;16.61;100.00
68197;BME280;55019;49.382;11.358;2023-07-24T04:00:08;95904.16;;;16.53;100.00
68197;BME280;55019;49.382;11.358;2023-07-24T04:02:40;95893.25;;;16.62;100.00
68197;BME280;55019;49.382;11.358;2023-07-24T04:05:05;95885.09;;;16.59;100.00
68197;BME280;55019;49.382;11.358;2023-07-24T04:07:31;95890.88;;;16.61;100.00
68197;BME280;55019;49.382;11.358;2023-07-24T04:09:57;95885.09;;;16.59;100.00
68197;BME280;55019;49.382;11.358;2023-07-24T04:12:22;95876.25;;;16.60;100.00
68197;BME280;55019;49.382;11.358;2023-07-24T04:14:48;95873.03;;;16.58;100.00
68197;BME280;55019;49.382;11.358;2023-07-24T04:17:17;95869.63;;;16.57;100.00
68197;BME280;55019;49.382;11.358;2023-07-24T04:19:42;95872.25;;;16.57;100.00
68197;BME280;55019;49.382;11.358;2023-07-24T04:22:08;95870.69;;;16.50;100.00
68197;BME280;55019;49.382;11.358;2023-07-24T04:24:34;95866.88;;;16.52;100.00
68197;BME280;55019;49.382;11.358;2023-07-24T04:26:59;95871.81;;;16.60;100.00
68197;BME280;55019;49.382;11.358;2023-07-24T04:29:25;95876.69;;;16.75;100.00
68197;BME280;55019;49.382;11.358;2023-07-24T04:31:51;95869.44;;;16.77;100.00
68197;BME280;55019;49.382;11.358;2023-07-24T04:34:17;95864.94;;;16.84;100.00
68197;BME280;55019;49.382;11.358;2023-07-24T04:36:43;95858.06;;;16.89;100.00
68197;BME280;55019;49.382;11.358;2023-07-24T04:39:09;95857.50;;;16.99;100.00
68197;BME280;55019;49.382;11.358;2023-07-24T04:41:34;95865.00;;;16.95;100.00
68197;BME280;55019;49.382;11.358;2023-07-24T04:44:00;95861.59;;;17.24;100.00
68197;BME280;55019;49.382;11.358;2023-07-24T04:46:26;95863.63;;;17.11;100.00
68197;BME280;55019;49.382;11.358;2023-07-24T04:48:51;95877.50;;;17.05;100.00
68197;BME280;55019;49.382;11.358;2023-07-24T04:51:17;95867.72;;;17.18;100.00
68197;BME280;55019;49.382;11.358;2023-07-24T04:53:44;95868.34;;;17.32;100.00
68197;BME280;55019;49.382;11.358;2023-07-24T04:56:10;95866.81;;;16.95;100.00
68197;BME280;55019;49.382;11.358;2023-07-24T04:58:36;95883.78;;;16.86;100.00
68197;BME280;55019;49.382;11.358;2023-07-24T05:01:03;95870.22;;;16.77;100.00
68197;BME280;55019;49.382;11.358;2023-07-24T05:03:29;95879.91;;;16.70;100.00
68197;BME280;55019;49.382;11.358;2023-07-24T05:05:55;95864.22;;;16.77;100.00
68197;BME280;55019;49.382;11.358;2023-07-24T05:08:24;95853.06;;;16.70;100.00
68197;BME280;55019;49.382;11.358;2023-07-24T05:10:56;95844.16;;;17.07;100.00
68197;BME280;55019;49.382;11.358;2023-07-24T05:13:22;95847.53;;;17.25;100.00
68197;BME280;55019;49.382;11.358;2023-07-24T05:15:48;95855.16;;;17.27;100.00
68197;BME280;55019;49.382;11.358;2023-07-24T05:18:13;95856.31;;;17.31;100.00
68197;BME280;55019;49.382;11.358;2023-07-24T05:20:44;95864.44;;;17.23;100.00
68197;BME280;55019;49.382;11.358;2023-07-24T05:23:09;95865.72;;;17.32;100.00
68197;BME280;55019;49.382;11.358;2023-07-24T05:25:35;95856.31;;;17.31;100.00
68197;BME280;55019;49.382;11.358;2023-07-24T05:28:01;95864.56;;;17.45;100.00
68197;BME280;55019;49.382;11.358;2023-07-24T05:30:26;95859.13;;;17.29;100.00
68197;BME280;55019;49.382;11.358;2023-07-24T05:32:52;95864.47;;;17.52;100.00
68197;BME280;55019;49.382;11.358;2023-07-24T05:35:18;95864.81;;;17.55;100.00
68197;BME280;55019;49.382;11.358;2023-07-24T05:37:43;95874.66;;;17.83;100.00
68197;BME280;55019;49.382;11.358;2023-07-24T05:40:09;95876.41;;;18.00;100.00
68197;BME280;55019;49.382;11.358;2023-07-24T05:42:38;95860.63;;;18.07;100.00
68197;BME280;55019;49.382;11.358;2023-07-24T05:45:07;95862.13;;;18.26;100.00
68197;BME280;55019;49.382;11.358;2023-07-24T05:47:34;95854.50;;;18.24;100.00
68197;BME280;55019;49.382;11.358;2023-07-24T05:49:59;95847.06;;;17.98;100.00
68197;BME280;55019;49.382;11.358;2023-07-24T05:52:25;95848.91;;;18.21;100.00
68197;BME280;55019;49.382;11.358;2023-07-24T05:54:51;95843.00;;;17.91;100.00
68197;BME280;55019;49.382;11.358;2023-07-24T05:57:16;95851.31;;;18.22;100.00
68197;BME280;55019;49.382;11.358;2023-07-24T05:59:42;95832.13;;;18.40;100.00
68197;BME280;55019;49.382;11.358;2023-07-24T06:02:08;95838.03;;;18.47;100.00
68197;BME280;55019;49.382;11.358;2023-07-24T06:04:34;95841.88;;;18.67;100.00
68197;BME280;55019;49.382;11.358;2023-07-24T06:07:00;95848.19;;;18.94;100.00
68197;BME280;55019;49.382;11.358;2023-07-24T06:09:26;95854.75;;;19.19;99.87
68197;BME280;55019;49.382;11.358;2023-07-24T06:11:51;95847.34;;;18.66;96.79
68197;BME280;55019;49.382;11.358;2023-07-24T06:14:17;95857.06;;;18.82;94.72
68197;BME280;55019;49.382;11.358;2023-07-24T06:16:43;95852.28;;;19.01;94.55
68197;BME280;55019;49.382;11.358;2023-07-24T06:19:08;95852.38;;;18.95;94.68
68197;BME280;55019;49.382;11.358;2023-07-24T06:21:34;95856.00;;;18.66;93.41
68197;BME280;55019;49.382;11.358;2023-07-24T06:23:59;95860.41;;;18.77;94.90
68197;BME280;55019;49.382;11.358;2023-07-24T06:26:25;95852.66;;;18.82;93.83
68197;BME280;55019;49.382;11.358;2023-07-24T06:28:51;95852.94;;;19.08;98.07
68197;BME280;55019;49.382;11.358;2023-07-24T06:31:16;95853.50;;;19.22;95.71
68197;BME280;55019;49.382;11.358;2023-07-24T06:33:42;95859.56;;;19.39;96.36
68197;BME280;55019;49.382;11.358;2023-07-24T06:36:11;95847.38;;;19.61;93.04
68197;BME280;55019;49.382;11.358;2023-07-24T06:38:37;95853.94;;;19.91;95.66
68197;BME280;55019;49.382;11.358;2023-07-24T06:41:02;95855.19;;;20.17;92.32
68197;BME280;55019;49.382;11.358;2023-07-24T06:43:28;95863.34;;;20.37;90.43
68197;BME280;55019;49.382;11.358;2023-07-24T06:45:54;95848.13;;;20.55;91.14
68197;BME280;55019;49.382;11.358;2023-07-24T06:48:20;95844.38;;;20.67;89.57
68197;BME280;55019;49.382;11.358;2023-07-24T06:50:45;95832.94;;;20.57;84.43
68197;BME280;55019;49.382;11.358;2023-07-24T06:53:11;95837.72;;;20.81;88.60
68197;BME280;55019;49.382;11.358;2023-07-24T06:55:36;95834.31;;;20.64;82.40
68197;BME280;55019;49.382;11.358;2023-07-24T06:58:02;95825.84;;;20.79;79.10
68197;BME280;55019;49.382;11.358;2023-07-24T07:00:28;95822.53;;;20.83;81.72
68197;BME280;55019;49.382;11.358;2023-07-24T07:02:53;95841.69;;;20.84;80.85
68197;BME280;55019;49.382;11.358;2023-07-24T07:05:19;95837.53;;;21.09;82.25
68197;BME280;55019;49.382;11.358;2023-07-24T07:07:45;95830.13;;;21.28;79.70
68197;BME280;55019;49.382;11.358;2023-07-24T07:10:10;95831.91;;;21.44;79.41
68197;BME280;55019;49.382;11.358;2023-07-24T07:12:36;95832.47;;;21.72;80.43
68197;BME280;55019;49.382;11.358;2023-07-24T07:15:02;95827.81;;;21.31;77.33
68197;BME280;55019;49.382;11.358;2023-07-24T07:17:28;95832.22;;;21.52;75.19
68197;BME280;55019;49.382;11.358;2023-07-24T07:19:53;95828.06;;;21.56;74.59
68197;BME280;55019;49.382;11.358;2023-07-24T07:22:21;95825.88;;;21.48;75.93
68197;BME280;55019;49.382;11.358;2023-07-24T07:24:47;95822.53;;;21.79;73.97
68197;BME280;55019;49.382;11.358;2023-07-24T07:27:14;95831.06;;;21.91;73.45
68197;BME280;55019;49.382;11.358;2023-07-24T07:29:43;95827.00;;;21.79;74.31
68197;BME280;55019;49.382;11.358;2023-07-24T07:32:09;95832.59;;;21.87;74.60
68197;BME280;55019;49.382;11.358;2023-07-24T07:34:35;95828.50;;;22.01;74.67
68197;BME280;55019;49.382;11.358;2023-07-24T07:37:01;95814.59;;;21.74;71.73
68197;BME280;55019;49.382;11.358;2023-07-24T07:39:27;95826.41;;;22.03;73.73
68197;BME280;55019;49.382;11.358;2023-07-24T07:41:52;95819.09;;;22.10;71.74
68197;BME280;55019;49.382;11.358;2023-07-24T07:44:18;95828.53;;;21.75;73.29
68197;BME280;55019;49.382;11.358;2023-07-24T07:46:44;95829.31;;;21.70;75.65
68197;BME280;55019;49.382;11.358;2023-07-24T07:49:09;95833.44;;;21.66;75.92
68197;BME280;55019;49.382;11.358;2023-07-24T07:51:35;95829.56;;;21.47;76.80
68197;BME280;55019;49.382;11.358;2023-07-24T07:54:01;95834.16;;;21.35;80.29
68197;BME280;55019;49.382;11.358;2023-07-24T07:56:26;95836.19;;;21.28;79.25
68197;BME280;55019;49.382;11.358;2023-07-24T07:58:53;95848.19;;;21.19;78.36
68197;BME280;55019;49.382;11.358;2023-07-24T08:01:19;95845.97;;;21.11;78.10
68197;BME280;55019;49.382;11.358;2023-07-24T08:03:45;95855.03;;;21.20;78.22
68197;BME280;55019;49.382;11.358;2023-07-24T08:06:11;95855.44;;;21.34;77.87
68197;BME280;55019;49.382;11.358;2023-07-24T08:08:38;95858.91;;;21.39;78.07
68197;BME280;55019;49.382;11.358;2023-07-24T08:11:06;95857.91;;;21.45;76.42
68197;BME280;55019;49.382;11.358;2023-07-24T08:13:33;95869.97;;;21.41;77.75
68197;BME280;55019;49.382;11.358;2023-07-24T08:15:58;95867.88;;;21.43;76.02
68197;BME280;55019;49.382;11.358;2023-07-24T08:18:25;95871.50;;;21.37;77.65
68197;BME280;55019;49.382;11.358;2023-07-24T08:20:51;95864.78;;;21.46;76.16
68197;BME280;55019;49.382;11.358;2023-07-24T08:23:17;95852.03;;;21.60;79.23
68197;BME280;55019;49.382;11.358;2023-07-24T08:25:55;95846.72;;;21.76;75.16
68197;BME280;55019;49.382;11.358;2023-07-24T08:28:21;95830.97;;;21.81;74.54
68197;BME280;55019;49.382;11.358;2023-07-24T08:30:56;95831.94;;;22.01;74.76
68197;BME280;55019;49.382;11.358;2023-07-24T08:33:23;95847.91;;;21.95;72.69
68197;BME280;55019;49.382;11.358;2023-07-24T08:36:01;95862.91;;;21.95;74.57
68197;BME280;55019;49.382;11.358;2023-07-24T08:38:27;95858.41;;;21.90;73.17
68197;BME280;55019;49.382;11.358;2023-07-24T08:41:19;95861.03;;;21.90;75.73
68197;BME280;55019;49.382;11.358;2023-07-24T08:43:46;95856.31;;;21.92;73.78
68197;BME280;55019;49.382;11.358;2023-07-24T08:46:11;95854.47;;;21.66;75.11
68197;BME280;55019;49.382;11.358;2023-07-24T08:48:41;95837.63;;;21.62;75.01
68197;BME280;55019;49.382;11.358;2023-07-24T08:51:09;95829.50;;;21.64;75.58
68197;BME280;55019;49.382;11.358;2023-07-24T08:53:36;95838.47;;;21.46;74.48
68197;BME280;55019;49.382;11.358;2023-07-24T08:56:03;95833.91;;;21.37;77.54
68197;BME280;55019;49.382;11.358;2023-07-24T08:58:30;95835.59;;;21.21;77.32
68197;BME280;55019;49.382;11.358;2023-07-24T09:00:57;95839.56;;;21.24;78.42
68197;BME280;55019;49.382;11.358;2023-07-24T09:03:23;95821.25;;;21.07;79.25
68197;BME280;55019;49.382;11.358;2023-07-24T09:05:48;95819.03;;;20.99;79.58
68197;BME280;55019;49.382;11.358;2023-07-24T09:08:14;95810.06;;;20.95;79.69
68197;BME280;55019;49.382;11.358;2023-07-24T09:10:40;95812.97;;;20.94;81.54
68197;BME280;55019;49.382;11.358;2023-07-24T09:13:06;95823.75;;;20.97;81.24
68197;BME280;55019;49.382;11.358;2023-07-24T09:15:41;95818.63;;;21.07;80.88
68197;BME280;55019;49.382;11.358;2023-07-24T09:18:07;95823.44;;;21.15;80.43
68197;BME280;55019;49.382;11.358;2023-07-24T09:20:40;95812.63;;;21.12;80.90
68197;BME280;55019;49.382;11.358;2023-07-24T09:23:07;95817.63;;;21.13;81.78
68197;BME280;55019;49.382;11.358;2023-07-24T09:25:37;95826.69;;;21.22;81.99
68197;BME280;55019;49.382;11.358;2023-07-24T09:28:11;95819.84;;;21.21;81.86
68197;BME280;55019;49.382;11.358;2023-07-24T09:30:38;95810.44;;;21.25;81.07
68197;BME280;55019;49.382;11.358;2023-07-24T09:33:04;95801.56;;;21.31;80.89
68197;BME280;55019;49.382;11.358;2023-07-24T09:35:30;95805.34;;;21.45;79.55
68197;BME280;55019;49.382;11.358;2023-07-24T09:38:14;95795.56;;;21.62;79.41
68197;BME280;55019;49.382;11.358;2023-07-24T09:40:44;95805.19;;;21.78;77.41
68197;BME280;55019;49.382;11.358;2023-07-24T09:43:21;95805.47;;;22.18;76.68
68197;BME280;55019;49.382;11.358;2023-07-24T09:45:48;95791.91;;;22.36;76.09
68197;BME280;55019;49.382;11.358;2023-07-24T09:48:15;95790.75;;;22.58;74.19
68197;BME280;55019;49.382;11.358;2023-07-24T09:50:44;95797.47;;;22.86;73.63
68197;BME280;55019;49.382;11.358;2023-07-24T09:53:40;95778.16;;;23.61;69.23
68197;BME280;55019;49.382;11.358;2023-07-24T09:56:09;95785.31;;;23.96;68.95
68197;BME280;55019;49.382;11.358;2023-07-24T09:58:37;95790.78;;;24.49;64.79
68197;BME280;55019;49.382;11.358;2023-07-24T10:01:04;95786.00;;;24.76;63.88
68197;BME280;55019;49.382;11.358;2023-07-24T10:03:34;95775.31;;;25.01;61.44
68197;BME280;55019;49.382;11.358;2023-07-24T10:06:01;95778.63;;;24.68;61.57
68197;BME280;55019;49.382;11.358;2023-07-24T10:08:27;95769.94;;;24.48;61.35
68197;BME280;55019;49.382;11.358;2023-07-24T10:10:53;95777.28;;;24.76;59.96
68197;BME280;55019;49.382;11.358;2023-07-24T10:13:20;95774.84;;;24.89;60.43
68197;BME280;55019;49.382;11.358;2023-07-24T10:15:48;95781.94;;;25.52;61.17
68197;BME280;55019;49.382;11.358;2023-07-24T10:18:16;95777.56;;;26.09;57.41
68197;BME280;55019;49.382;11.358;2023-07-24T10:20:43;95758.22;;;26.37;54.79
68197;BME280;55019;49.382;11.358;2023-07-24T10:23:11;95759.34;;;27.01;55.63
68197;BME280;55019;49.382;11.358;2023-07-24T10:25:40;95764.91;;;26.81;53.46
68197;BME280;55019;49.382;11.358;2023-07-24T10:28:10;95771.38;;;26.19;55.19
68197;BME280;55019;49.382;11.358;2023-07-24T10:30:40;95782.16;;;25.99;55.22
68197;BME280;55019;49.382;11.358;2023-07-24T10:33:10;95783.44;;;25.63;55.42
68197;BME280;55019;49.382;11.358;2023-07-24T10:38:07;95780.22;;;24.64;60.71
68197;BME280;55019;49.382;11.358;2023-07-24T10:40:33;95792.13;;;24.42;60.12
68197;BME280;55019;49.382;11.358;2023-07-24T10:43:01;95787.16;;;24.10;61.45
68197;BME280;55019;49.382;11.358;2023-07-24T10:45:46;95797.72;;;24.15;64.03
68197;BME280;55019;49.382;11.358;2023-07-24T10:48:13;95796.94;;;23.95;63.89
68197;BME280;55019;49.382;11.358;2023-07-24T10:50:40;95795.63;;;23.82;65.70
68197;BME280;55019;49.382;11.358;2023-07-24T10:53:06;95805.66;;;23.80;66.40
68197;BME280;55019;49.382;11.358;2023-07-24T10:55:32;95795.03;;;23.70;66.64
68197;BME280;55019;49.382;11.358;2023-07-24T10:57:57;95797.16;;;23.63;67.71
68197;BME280;55019;49.382;11.358;2023-07-24T11:00:23;95790.00;;;23.34;67.36
68197;BME280;55019;49.382;11.358;2023-07-24T11:02:52;95805.03;;;23.44;68.97
68197;BME280;55019;49.382;11.358;2023-07-24T11:05:18;95805.56;;;23.41;69.07
68197;BME280;55019;49.382;11.358;2023-07-24T11:07:46;95806.84;;;23.28;69.51
68197;BME280;55019;49.382;11.358;2023-07-24T11:10:22;95808.63;;;23.13;71.00
68197;BME280;55019;49.382;11.358;2023-07-24T11:12:48;95804.88;;;22.94;72.68
68197;BME280;55019;49.382;11.358;2023-07-24T11:15:15;95804.72;;;22.64;74.31
68197;BME280;55019;49.382;11.358;2023-07-24T11:17:42;95801.81;;;22.60;77.74
68197;BME280;55019;49.382;11.358;2023-07-24T11:22:35;95803.91;;;22.58;78.05
68197;BME280;55019;49.382;11.358;2023-07-24T11:25:00;95812.06;;;22.62;79.34
68197;BME280;55019;49.382;11.358;2023-07-24T11:27:30;95816.06;;;22.69;79.47
68197;BME280;55019;49.382;11.358;2023-07-24T11:29:56;95809.47;;;22.67;75.85
68197;BME280;55019;49.382;11.358;2023-07-24T11:32:22;95825.22;;;22.57;78.87
68197;BME280;55019;49.382;11.358;2023-07-24T11:34:48;95818.31;;;22.46;77.62
68197;BME280;55019;49.382;11.358;2023-07-24T11:37:15;95820.41;;;22.44;80.65
68197;BME280;55019;49.382;11.358;2023-07-24T11:39:41;95811.44;;;22.40;77.88
68197;BME280;55019;49.382;11.358;2023-07-24T11:42:06;95816.94;;;22.38;78.75
68197;BME280;55019;49.382;11.358;2023-07-24T11:44:32;95819.25;;;22.30;82.68
68197;BME280;55019;49.382;11.358;2023-07-24T11:47:05;95810.00;;;22.27;82.16
68197;BME280;55019;49.382;11.358;2023-07-24T11:49:32;95822.25;;;22.12;83.16
68197;BME280;55019;49.382;11.358;2023-07-24T11:52:03;95812.94;;;21.95;86.40
68197;BME280;55019;49.382;11.358;2023-07-24T11:54:29;95816.75;;;21.77;87.42
68197;BME280;55019;49.382;11.358;2023-07-24T11:56:55;95827.28;;;21.56;89.06
68197;BME280;55019;49.382;11.358;2023-07-24T11:59:20;95827.47;;;21.49;90.75
68197;BME280;55019;49.382;11.358;2023-07-24T12:01:47;95824.97;;;21.38;88.58
68197;BME280;55019;49.382;11.358;2023-07-24T12:04:16;95826.88;;;21.16;91.17
68197;BME280;55019;49.382;11.358;2023-07-24T12:06:42;95829.28;;;20.96;90.02
68197;BME280;55019;49.382;11.358;2023-07-24T12:09:08;95825.06;;;20.95;89.77
68197;BME280;55019;49.382;11.358;2023-07-24T12:11:45;95824.75;;;20.75;87.89
68197;BME280;55019;49.382;11.358;2023-07-24T12:14:13;95820.81;;;20.72;87.25
68197;BME280;55019;49.382;11.358;2023-07-24T12:16:39;95816.22;;;20.63;89.85
68197;BME280;55019;49.382;11.358;2023-07-24T12:19:04;95814.63;;;20.62;92.40
68197;BME280;55019;49.382;11.358;2023-07-24T12:21:30;95802.09;;;20.47;91.85
68197;BME280;55019;49.382;11.358;2023-07-24T12:23:56;95793.56;;;20.57;91.68
68197;BME280;55019;49.382;11.358;2023-07-24T12:26:21;95793.84;;;20.60;92.15
68197;BME280;55019;49.382;11.358;2023-07-24T12:28:47;95783.13;;;20.62;92.68
68197;BME280;55019;49.382;11.358;2023-07-24T12:31:13;95781.53;;;20.61;90.16
68197;BME280;55019;49.382;11.358;2023-07-24T12:33:39;95779.47;;;20.63;91.36
68197;BME280;55019;49.382;11.358;2023-07-24T12:36:04;95785.91;;;20.55;92.44
68197;BME280;55019;49.382;11.358;2023-07-24T12:38:30;95799.06;;;20.39;94.71
68197;BME280;55019;49.382;11.358;2023-07-24T12:40:56;95783.09;;;20.41;94.78
68197;BME280;55019;49.382;11.358;2023-07-24T12:43:21;95785.63;;;20.14;94.46
68197;BME280;55019;49.382;11.358;2023-07-24T12:45:47;95783.16;;;20.08;95.95
68197;BME280;55019;49.382;11.358;2023-07-24T12:48:13;95793.09;;;20.06;96.60
68197;BME280;55019;49.382;11.358;2023-07-24T12:50:38;95796.72;;;19.88;96.76
68197;BME280;55019;49.382;11.358;2023-07-24T12:53:04;95786.00;;;19.90;96.57